Time,TemperatureF,DewpointF,PressureIn,WindDirection,WindDirectionDegrees,WindSpeedMPH,WindSpeedGustMPH,Humidity,HourlyPrecipIn,Conditions,Clouds,dailyrainin,SoftwareType,DateUTC
2013-08-23 00:00:00,79.0,58.8,30.08,NE,46,1.0,24.0,50,0.00,,,0.00,Wunderground v.1.15,2013-08-23 07:00:00,
2013-08-23 00:05:00,78.6,59.5,30.08,NNE,32,2.0,24.0,52,0.00,,,0.00,Wunderground v.1.15,2013-08-23 07:05:00,
2013-08-23 00:10:00,78.2,59.1,30.07,NNE,33,3.0,3.0,52,0.00,,,0.00,Wunderground v.1.15,2013-08-23 07:10:00,
2013-08-23 00:20:00,78.3,58.7,30.07,North,1,3.0,3.0,51,0.00,,,0.00,Wunderground v.1.15,2013-08-23 07:20:00,
2013-08-23 00:25:00,78.3,58.7,30.07,WNW,299,3.0,5.0,51,0.00,,,0.00,Wunderground v.1.15,2013-08-23 07:25:00,
2013-08-23 00:30:00,78.3,58.1,30.07,NNW,337,3.0,7.0,50,0.00,,,0.00,Wunderground v.1.15,2013-08-23 07:30:00,
2013-08-23 00:35:00,78.2,58.6,30.07,WNW,302,4.0,12.0,51,0.00,,,0.00,Wunderground v.1.15,2013-08-23 07:35:00,
2013-08-23 00:45:00,78.0,58.4,30.06,NNW,341,1.0,12.0,51,0.00,,,0.00,Wunderground v.1.15,2013-08-23 07:45:00,
2013-08-23 00:50:00,77.9,58.3,30.06,NNW,339,1.0,1.0,51,0.00,,,0.00,Wunderground v.1.15,2013-08-23 07:50:00,
2013-08-23 01:00:00,77.9,58.9,30.06,NW,324,4.0,12.0,52,0.00,,,0.00,Wunderground v.1.15,2013-08-23 08:00:00,
2013-08-23 01:10:00,77.5,58.5,30.06,NNW,335,3.0,9.0,52,0.00,,,0.00,Wunderground v.1.15,2013-08-23 08:10:00,
2013-08-23 01:15:00,77.2,58.7,30.06,NNW,335,3.0,9.0,53,0.00,,,0.00,Wunderground v.1.15,2013-08-23 08:15:00,
2013-08-23 01:20:00,77.1,58.6,30.05,NNW,342,2.0,2.0,53,0.00,,,0.00,Wunderground v.1.15,2013-08-23 08:20:00,
2013-08-23 01:30:00,76.6,58.2,30.05,NNW,342,0.0,9.0,53,0.00,,,0.00,Wunderground v.1.15,2013-08-23 08:30:00,
2013-08-23 01:35:00,76.5,58.1,30.05,NNW,341,1.0,9.0,53,0.00,,,0.00,Wunderground v.1.15,2013-08-23 08:35:00,
2013-08-23 01:45:00,76.5,58.1,30.05,NNW,338,2.0,7.0,53,0.00,,,0.00,Wunderground v.1.15,2013-08-23 08:45:00,
2013-08-23 01:50:00,76.3,58.4,30.05,NNW,346,4.0,7.0,54,0.00,,,0.00,Wunderground v.1.15,2013-08-23 08:50:00,
2013-08-23 02:00:00,76.2,58.3,30.05,NNW,342,4.0,7.0,54,0.00,,,0.00,Wunderground v.1.15,2013-08-23 09:00:00,
2013-08-23 02:05:00,76.2,58.3,30.05,NNW,346,3.0,8.0,54,0.00,,,0.00,Wunderground v.1.15,2013-08-23 09:05:00,
2013-08-23 02:15:00,76.1,58.2,30.04,North,351,1.0,8.0,54,0.00,,,0.00,Wunderground v.1.15,2013-08-23 09:15:00,
2013-08-23 02:20:00,76.1,58.2,30.04,North,351,0.0,8.0,54,0.00,,,0.00,Wunderground v.1.15,2013-08-23 09:20:00,
2013-08-23 02:30:00,76.1,58.2,30.04,North,351,0.0,8.0,54,0.00,,,0.00,Wunderground v.1.15,2013-08-23 09:30:00,
2013-08-23 02:35:00,76.0,58.2,30.04,North,351,0.0,8.0,54,0.00,,,0.00,Wunderground v.1.15,2013-08-23 09:35:00,
2013-08-23 02:40:00,75.9,58.1,30.04,North,351,0.0,6.0,54,0.00,,,0.00,Wunderground v.1.15,2013-08-23 09:40:00,
2013-08-23 02:50:00,75.9,58.1,30.04,North,351,0.0,6.0,54,0.00,,,0.00,Wunderground v.1.15,2013-08-23 09:50:00,
2013-08-23 02:55:00,75.8,58.0,30.05,North,351,0.0,6.0,54,0.00,,,0.00,Wunderground v.1.15,2013-08-23 09:55:00,
2013-08-23 03:00:00,75.6,57.8,30.05,North,351,0.0,6.0,54,0.00,,,0.00,Wunderground v.1.15,2013-08-23 10:00:00,
2013-08-23 03:10:00,75.2,57.9,30.04,North,351,0.0,0.0,55,0.00,,,0.00,Wunderground v.1.15,2013-08-23 10:10:00,
2013-08-23 03:15:00,75.1,57.8,30.04,North,351,0.0,0.0,55,0.00,,,0.00,Wunderground v.1.15,2013-08-23 10:15:00,
2013-08-23 03:20:00,75.3,58.0,30.04,SW,220,0.0,0.0,55,0.00,,,0.00,Wunderground v.1.15,2013-08-23 10:20:00,
2013-08-23 03:30:00,75.4,58.1,30.05,SW,220,0.0,0.0,55,0.00,,,0.00,Wunderground v.1.15,2013-08-23 10:30:00,
2013-08-23 03:35:00,75.3,58.0,30.05,SSW,208,0.0,3.0,55,0.00,,,0.00,Wunderground v.1.15,2013-08-23 10:35:00,
2013-08-23 03:40:00,75.9,58.6,30.05,SSW,192,1.0,5.0,55,0.00,,,0.00,Wunderground v.1.15,2013-08-23 10:40:00,
2013-08-23 03:50:00,77.0,58.6,30.05,South,171,2.0,2.0,53,0.00,,,0.00,Wunderground v.1.15,2013-08-23 10:50:00,
2013-08-23 04:00:00,77.2,58.2,30.04,South,179,1.0,1.0,52,0.00,,,0.00,Wunderground v.1.15,2013-08-23 11:00:00,
2013-08-23 04:05:00,77.0,58.6,30.04,South,179,1.0,8.0,53,0.00,,,0.00,Wunderground v.1.15,2013-08-23 11:05:00,
2013-08-23 04:15:00,76.7,58.3,30.05,SSE,160,2.0,8.0,53,0.00,,,0.00,Wunderground v.1.15,2013-08-23 11:15:00,
2013-08-23 04:20:00,76.5,58.6,30.05,SSE,161,1.0,8.0,54,0.00,,,0.00,Wunderground v.1.15,2013-08-23 11:20:00,
2013-08-23 04:30:00,75.7,58.4,30.05,SSE,161,0.0,8.0,55,0.00,,,0.00,Wunderground v.1.15,2013-08-23 11:30:00,
2013-08-23 04:40:00,75.1,58.3,30.04,SSE,161,0.0,9.0,56,0.00,,,0.00,Wunderground v.1.15,2013-08-23 11:40:00,
2013-08-23 04:45:00,74.8,58.5,30.04,SSE,161,0.0,9.0,57,0.00,,,0.00,Wunderground v.1.15,2013-08-23 11:45:00,
2013-08-23 04:50:00,74.5,58.3,30.04,SSE,161,0.0,9.0,57,0.00,,,0.00,Wunderground v.1.15,2013-08-23 11:50:00,
2013-08-23 05:00:00,73.7,58.0,30.04,SSE,161,0.0,9.0,58,0.00,,,0.00,Wunderground v.1.15,2013-08-23 12:00:00,
2013-08-23 05:05:00,73.4,57.7,30.05,SSE,161,0.0,9.0,58,0.00,,,0.00,Wunderground v.1.15,2013-08-23 12:05:00,
2013-08-23 05:15:00,72.9,57.7,30.05,SSE,161,0.0,0.0,59,0.00,,,0.00,Wunderground v.1.15,2013-08-23 12:15:00,
2013-08-23 05:20:00,72.5,57.8,30.05,SSE,161,0.0,0.0,60,0.00,,,0.00,Wunderground v.1.15,2013-08-23 12:20:00,
2013-08-23 05:30:00,72.1,57.4,30.05,SSE,161,0.0,0.0,60,0.00,,,0.00,Wunderground v.1.15,2013-08-23 12:30:00,
2013-08-23 05:35:00,72.0,57.8,30.05,SSE,161,0.0,0.0,61,0.00,,,0.00,Wunderground v.1.15,2013-08-23 12:35:00,
2013-08-23 05:45:00,71.7,57.5,30.05,SSE,161,0.0,0.0,61,0.00,,,0.00,Wunderground v.1.15,2013-08-23 12:45:00,
2013-08-23 05:50:00,71.6,57.9,30.05,SSE,161,0.0,0.0,62,0.00,,,0.00,Wunderground v.1.15,2013-08-23 12:50:00,
2013-08-23 06:00:00,71.2,57.5,30.05,SSE,161,0.0,0.0,62,0.00,,,0.00,Wunderground v.1.15,2013-08-23 13:00:00,
2013-08-23 06:05:00,71.2,57.5,30.05,SSE,161,0.0,0.0,62,0.00,,,0.00,Wunderground v.1.15,2013-08-23 13:05:00,
2013-08-23 06:15:00,70.9,57.2,30.05,SSE,161,0.0,0.0,62,0.00,,,0.00,Wunderground v.1.15,2013-08-23 13:15:00,
2013-08-23 06:20:00,70.8,57.1,30.05,SSE,161,1.0,1.0,62,0.00,,,0.00,Wunderground v.1.15,2013-08-23 13:20:00,
2013-08-23 06:25:00,70.8,57.6,30.05,SSE,161,1.0,1.0,63,0.00,,,0.00,Wunderground v.1.15,2013-08-23 13:25:00,
2013-08-23 06:30:00,70.8,57.1,30.06,SSE,161,1.0,2.0,62,0.00,,,0.00,Wunderground v.1.15,2013-08-23 13:30:00,
2013-08-23 06:40:00,71.1,57.4,30.06,South,190,4.0,4.0,62,0.00,,,0.00,Wunderground v.1.15,2013-08-23 13:40:00,
2013-08-23 06:45:00,71.2,57.5,30.06,South,190,4.0,5.0,62,0.00,,,0.00,Wunderground v.1.15,2013-08-23 13:45:00,
2013-08-23 06:50:00,71.4,57.7,30.06,SSW,199,3.0,6.0,62,0.00,,,0.00,Wunderground v.1.15,2013-08-23 13:50:00,
2013-08-23 07:00:00,72.1,58.4,30.06,SSW,199,2.0,2.0,62,0.00,,,0.00,Wunderground v.1.15,2013-08-23 14:00:00,
2013-08-23 07:05:00,72.6,58.4,30.06,SSW,199,1.0,7.0,61,0.00,,,0.00,Wunderground v.1.15,2013-08-23 14:05:00,
2013-08-23 07:15:00,73.6,57.9,30.06,SSW,199,0.0,7.0,58,0.00,,,0.00,Wunderground v.1.15,2013-08-23 14:15:00,
2013-08-23 07:20:00,73.9,58.2,30.06,SSW,199,0.0,7.0,58,0.00,,,0.00,Wunderground v.1.15,2013-08-23 14:20:00,
2013-08-23 07:25:00,74.4,58.2,30.06,SSW,203,1.0,7.0,57,0.00,,,0.00,Wunderground v.1.15,2013-08-23 14:25:00,
2013-08-23 07:35:00,75.7,58.4,30.06,SSW,203,1.0,2.0,55,0.00,,,0.00,Wunderground v.1.15,2013-08-23 14:35:00,
2013-08-23 07:45:00,76.7,58.3,30.06,SSW,203,0.0,5.0,53,0.00,,,0.00,Wunderground v.1.15,2013-08-23 14:45:00,
2013-08-23 07:50:00,77.2,58.2,30.06,SSW,206,0.0,5.0,52,0.00,,,0.00,Wunderground v.1.15,2013-08-23 14:50:00,
2013-08-23 08:00:00,78.6,57.8,30.06,WNW,302,2.0,2.0,49,0.00,,,0.00,Wunderground v.1.15,2013-08-23 15:00:00,
2013-08-23 08:05:00,79.2,56.6,30.06,NW,304,2.0,3.0,46,0.00,,,0.00,Wunderground v.1.15,2013-08-23 15:05:00,
2013-08-23 08:10:00,79.6,55.8,30.06,NW,304,3.0,10.0,44,0.00,,,0.00,Wunderground v.1.15,2013-08-23 15:10:00,
2013-08-23 08:20:00,80.0,55.5,30.06,NW,311,5.0,5.0,43,0.00,,,0.00,Wunderground v.1.15,2013-08-23 15:20:00,
2013-08-23 08:25:00,80.1,55.6,30.06,NW,312,4.0,10.0,43,0.00,,,0.00,Wunderground v.1.15,2013-08-23 15:25:00,
2013-08-23 08:30:00,79.9,54.8,30.06,NNW,331,7.0,10.0,42,0.00,,,0.00,Wunderground v.1.15,2013-08-23 15:30:00,
2013-08-23 08:35:00,79.9,54.1,30.06,WNW,300,7.0,15.0,41,0.00,,,0.00,Wunderground v.1.15,2013-08-23 15:35:00,
2013-08-23 08:45:00,80.1,53.6,30.06,NW,313,5.0,15.0,40,0.00,,,0.00,Wunderground v.1.15,2013-08-23 15:45:00,
2013-08-23 08:50:00,80.8,54.9,30.06,NNW,342,3.0,3.0,41,0.00,,,0.00,Wunderground v.1.15,2013-08-23 15:50:00,
2013-08-23 09:00:00,80.9,55.7,30.07,NW,317,5.0,15.0,42,0.00,,,0.00,Wunderground v.1.15,2013-08-23 16:00:00,
2013-08-23 09:05:00,81.0,55.7,30.07,NW,324,4.0,15.0,42,0.00,,,0.00,Wunderground v.1.15,2013-08-23 16:05:00,
2013-08-23 09:15:00,81.2,57.2,30.07,NW,309,3.0,15.0,44,0.00,,,0.00,Wunderground v.1.15,2013-08-23 16:15:00,
2013-08-23 09:20:00,81.8,57.8,30.07,WNW,291,3.0,15.0,44,0.00,,,0.00,Wunderground v.1.15,2013-08-23 16:20:00,
2013-08-23 09:25:00,81.9,58.5,30.07,WNW,295,4.0,15.0,45,0.00,,,0.00,Wunderground v.1.15,2013-08-23 16:25:00,
2013-08-23 09:30:00,81.6,57.6,30.07,West,264,7.0,15.0,44,0.00,,,0.00,Wunderground v.1.15,2013-08-23 16:30:00,
2013-08-23 09:35:00,82.0,57.9,30.07,WNW,283,7.0,15.0,44,0.00,,,0.00,Wunderground v.1.15,2013-08-23 16:35:00,
2013-08-23 09:45:00,81.9,57.2,30.07,West,269,8.0,15.0,43,0.00,,,0.00,Wunderground v.1.15,2013-08-23 16:45:00,
2013-08-23 09:50:00,82.0,57.3,30.07,WNW,286,8.0,8.0,43,0.00,,,0.00,Wunderground v.1.15,2013-08-23 16:50:00,
2013-08-23 10:00:00,82.3,56.2,30.07,WNW,300,8.0,8.0,41,0.00,,,0.00,Wunderground v.1.15,2013-08-23 17:00:00,
2013-08-23 10:10:00,82.4,56.3,30.07,WNW,285,8.0,17.0,41,0.00,,,0.00,Wunderground v.1.15,2013-08-23 17:10:00,
2013-08-23 10:15:00,82.2,56.8,30.07,NW,319,9.0,17.0,42,0.00,,,0.00,Wunderground v.1.15,2013-08-23 17:15:00,
2013-08-23 10:20:00,82.2,56.8,30.07,WNW,298,9.0,17.0,42,0.00,,,0.00,Wunderground v.1.15,2013-08-23 17:20:00,
2013-08-23 10:30:00,82.3,56.2,30.07,WNW,300,10.0,17.0,41,0.00,,,0.00,Wunderground v.1.15,2013-08-23 17:30:00,
2013-08-23 10:35:00,82.5,55.7,30.07,WNW,301,10.0,17.0,40,0.00,,,0.00,Wunderground v.1.15,2013-08-23 17:35:00,
2013-08-23 10:45:00,83.4,56.5,30.07,WNW,298,7.0,17.0,40,0.00,,,0.00,Wunderground v.1.15,2013-08-23 17:45:00,
2013-08-23 10:50:00,83.8,56.2,30.07,WNW,285,8.0,8.0,39,0.00,,,0.00,Wunderground v.1.15,2013-08-23 17:50:00,
2013-08-23 11:00:00,83.9,56.3,30.07,NW,313,8.0,17.0,39,0.00,,,0.00,Wunderground v.1.15,2013-08-23 18:00:00,
2013-08-23 11:10:00,83.8,56.9,30.06,West,279,8.0,18.0,40,0.00,,,0.00,Wunderground v.1.15,2013-08-23 18:10:00,
2013-08-23 11:15:00,84.0,57.1,30.07,WNW,296,9.0,18.0,40,0.00,,,0.00,Wunderground v.1.15,2013-08-23 18:15:00,
2013-08-23 11:20:00,84.0,55.7,30.06,WSW,245,8.0,18.0,38,0.00,,,0.00,Wunderground v.1.15,2013-08-23 18:20:00,
2013-08-23 11:30:00,84.5,57.5,30.06,West,275,7.0,18.0,40,0.00,,,0.00,Wunderground v.1.15,2013-08-23 18:30:00,
2013-08-23 11:35:00,84.6,56.9,30.06,NW,309,7.0,18.0,39,0.00,,,0.00,Wunderground v.1.15,2013-08-23 18:35:00,
2013-08-23 11:45:00,84.7,57.0,30.06,WNW,294,7.0,17.0,39,0.00,,,0.00,Wunderground v.1.15,2013-08-23 18:45:00,
2013-08-23 11:50:00,84.9,57.2,30.05,WNW,299,7.0,17.0,39,0.00,,,0.00,Wunderground v.1.15,2013-08-23 18:50:00,
2013-08-23 12:00:00,85.1,56.6,30.05,West,263,8.0,8.0,38,0.00,,,0.00,Wunderground v.1.15,2013-08-23 19:00:00,
2013-08-23 12:05:00,85.1,56.6,30.05,WNW,294,9.0,9.0,38,0.00,,,0.00,Wunderground v.1.15,2013-08-23 19:05:00,
2013-08-23 12:15:00,85.4,56.9,30.05,WSW,257,8.0,20.0,38,0.00,,,0.00,Wunderground v.1.15,2013-08-23 19:15:00,
2013-08-23 12:20:00,85.4,56.9,30.05,WSW,254,9.0,20.0,38,0.00,,,0.00,Wunderground v.1.15,2013-08-23 19:20:00,
2013-08-23 12:30:00,85.6,55.6,30.04,West,281,9.0,9.0,36,0.00,,,0.00,Wunderground v.1.15,2013-08-23 19:30:00,
2013-08-23 12:35:00,85.7,55.7,30.04,West,275,9.0,18.0,36,0.00,,,0.00,Wunderground v.1.15,2013-08-23 19:35:00,
2013-08-23 12:45:00,86.0,55.9,30.04,West,277,11.0,11.0,36,0.00,,,0.00,Wunderground v.1.15,2013-08-23 19:45:00,
2013-08-23 12:50:00,86.0,55.2,30.04,West,280,11.0,18.0,35,0.00,,,0.00,Wunderground v.1.15,2013-08-23 19:50:00,
2013-08-23 13:00:00,86.4,53.9,30.03,West,279,10.0,18.0,33,0.00,,,0.00,Wunderground v.1.15,2013-08-23 20:00:00,
2013-08-23 13:10:00,86.9,54.3,30.03,NW,306,10.0,10.0,33,0.00,,,0.00,Wunderground v.1.15,2013-08-23 20:10:00,
2013-08-23 13:15:00,87.3,53.8,30.03,WNW,300,9.0,21.0,32,0.00,,,0.00,Wunderground v.1.15,2013-08-23 20:15:00,
2013-08-23 13:20:00,87.9,54.4,30.03,WNW,298,9.0,21.0,32,0.00,,,0.00,Wunderground v.1.15,2013-08-23 20:20:00,
2013-08-23 13:30:00,87.5,54.0,30.02,WNW,291,10.0,21.0,32,0.00,,,0.00,Wunderground v.1.15,2013-08-23 20:30:00,
2013-08-23 13:35:00,88.2,54.6,30.02,WNW,285,10.0,21.0,32,0.00,,,0.00,Wunderground v.1.15,2013-08-23 20:35:00,
2013-08-23 13:40:00,88.3,53.8,30.02,WNW,286,10.0,21.0,31,0.00,,,0.00,Wunderground v.1.15,2013-08-23 20:40:00,
2013-08-23 13:50:00,87.5,54.0,30.02,WNW,291,12.0,21.0,32,0.00,,,0.00,Wunderground v.1.15,2013-08-23 20:50:00,
2013-08-23 13:55:00,87.9,54.4,30.02,NW,305,12.0,21.0,32,0.00,,,0.00,Wunderground v.1.15,2013-08-23 20:55:00,
2013-08-23 14:00:00,87.7,53.3,30.01,NNW,335,11.0,21.0,31,0.00,,,0.00,Wunderground v.1.15,2013-08-23 21:00:00,
2013-08-23 14:05:00,87.5,54.0,30.01,NW,305,12.0,21.0,32,0.00,,,0.00,Wunderground v.1.15,2013-08-23 21:05:00,
2013-08-23 14:15:00,88.2,53.7,30.01,NW,326,11.0,20.0,31,0.00,,,0.00,Wunderground v.1.15,2013-08-23 21:15:00,
2013-08-23 14:20:00,87.9,55.2,30.01,WNW,289,12.0,12.0,33,0.00,,,0.00,Wunderground v.1.15,2013-08-23 21:20:00,
2013-08-23 14:30:00,88.7,55.9,30.00,NW,307,10.0,10.0,33,0.00,,,0.00,Wunderground v.1.15,2013-08-23 21:30:00,
2013-08-23 14:40:00,88.4,54.8,30.00,WNW,283,11.0,11.0,32,0.00,,,0.00,Wunderground v.1.15,2013-08-23 21:40:00,
2013-08-23 14:50:00,88.3,54.7,30.00,NW,315,12.0,12.0,32,0.00,,,0.00,Wunderground v.1.15,2013-08-23 21:50:00,
2013-08-23 15:00:00,88.6,55.8,29.99,WNW,288,10.0,10.0,33,0.00,,,0.00,Wunderground v.1.15,2013-08-23 22:00:00,
2013-08-23 15:05:00,89.4,56.5,29.99,NNW,337,9.0,22.0,33,0.00,,,0.00,Wunderground v.1.15,2013-08-23 22:05:00,
2013-08-23 15:15:00,88.6,55.8,29.99,WNW,290,11.0,11.0,33,0.00,,,0.00,Wunderground v.1.15,2013-08-23 22:15:00,
2013-08-23 15:20:00,88.4,56.5,29.99,WNW,293,11.0,22.0,34,0.00,,,0.00,Wunderground v.1.15,2013-08-23 22:20:00,
2013-08-23 15:30:00,88.8,56.8,29.98,West,277,11.0,22.0,34,0.00,,,0.00,Wunderground v.1.15,2013-08-23 22:30:00,
2013-08-23 15:40:00,88.4,55.6,29.98,West,273,12.0,12.0,33,0.00,,,0.00,Wunderground v.1.15,2013-08-23 22:40:00,
2013-08-23 15:45:00,89.0,54.4,29.98,West,281,12.0,14.0,31,0.00,,,0.00,Wunderground v.1.15,2013-08-23 22:45:00,
2013-08-23 15:50:00,88.0,56.1,29.98,WNW,288,12.0,12.0,34,0.00,,,0.00,Wunderground v.1.15,2013-08-23 22:50:00,
2013-08-23 16:00:00,87.6,55.8,29.98,WNW,282,14.0,21.0,34,0.00,,,0.00,Wunderground v.1.15,2013-08-23 23:00:00,
2013-08-23 16:05:00,87.1,56.1,29.97,WNW,291,14.0,25.0,35,0.00,,,0.00,Wunderground v.1.15,2013-08-23 23:05:00,
2013-08-23 16:15:00,87.6,54.9,29.97,West,271,12.0,25.0,33,0.00,,,0.00,Wunderground v.1.15,2013-08-23 23:15:00,
2013-08-23 16:20:00,87.9,56.0,29.97,WNW,283,12.0,25.0,34,0.00,,,0.00,Wunderground v.1.15,2013-08-23 23:20:00,
2013-08-23 16:30:00,87.8,54.3,29.97,West,280,12.0,25.0,32,0.00,,,0.00,Wunderground v.1.15,2013-08-23 23:30:00,
2013-08-23 16:35:00,87.3,53.8,29.96,WNW,301,13.0,25.0,32,0.00,,,0.00,Wunderground v.1.15,2013-08-23 23:35:00,
2013-08-23 16:40:00,87.0,55.2,29.96,WNW,290,13.0,25.0,34,0.00,,,0.00,Wunderground v.1.15,2013-08-23 23:40:00,
2013-08-23 16:45:00,87.0,54.4,29.96,WNW,289,11.0,25.0,33,0.00,,,0.00,Wunderground v.1.15,2013-08-23 23:45:00,
2013-08-23 16:55:00,87.1,52.8,29.96,WNW,297,11.0,25.0,31,0.00,,,0.00,Wunderground v.1.15,2013-08-23 23:55:00,
2013-08-23 17:00:00,87.4,56.4,29.97,West,267,9.0,25.0,35,0.00,,,0.00,Wunderground v.1.15,2013-08-24 00:00:00,
2013-08-23 17:05:00,87.3,56.3,29.97,WNW,297,9.0,25.0,35,0.00,,,0.00,Wunderground v.1.15,2013-08-24 00:05:00,
2013-08-23 17:15:00,86.8,55.1,29.97,West,264,11.0,14.0,34,0.00,,,0.00,Wunderground v.1.15,2013-08-24 00:15:00,
2013-08-23 17:20:00,86.3,54.6,29.97,NW,318,11.0,11.0,34,0.00,,,0.00,Wunderground v.1.15,2013-08-24 00:20:00,
2013-08-23 17:30:00,86.5,55.6,29.97,WNW,287,9.0,9.0,35,0.00,,,0.00,Wunderground v.1.15,2013-08-24 00:30:00,
2013-08-23 17:35:00,86.5,55.6,29.97,WNW,300,9.0,22.0,35,0.00,,,0.00,Wunderground v.1.15,2013-08-24 00:35:00,
2013-08-23 17:40:00,86.8,50.7,29.97,NW,321,8.0,22.0,29,0.00,,,0.00,Wunderground v.1.15,2013-08-24 00:40:00,
2013-08-23 17:50:00,87.0,51.8,29.97,NW,311,8.0,22.0,30,0.00,,,0.00,Wunderground v.1.15,2013-08-24 00:50:00,
2013-08-23 18:00:00,86.9,51.7,29.97,WNW,301,7.0,22.0,30,0.00,,,0.00,Wunderground v.1.15,2013-08-24 01:00:00,
2013-08-23 18:05:00,87.0,51.8,29.97,WNW,287,6.0,22.0,30,0.00,,,0.00,Wunderground v.1.15,2013-08-24 01:05:00,
2013-08-23 18:15:00,87.2,51.1,29.97,NNW,337,5.0,17.0,29,0.00,,,0.00,Wunderground v.1.15,2013-08-24 01:15:00,
2013-08-23 18:20:00,87.4,51.2,29.97,NNE,13,5.0,17.0,29,0.00,,,0.00,Wunderground v.1.15,2013-08-24 01:20:00,
2013-08-23 18:30:00,86.9,51.7,29.97,NW,320,6.0,17.0,30,0.00,,,0.00,Wunderground v.1.15,2013-08-24 01:30:00,
2013-08-23 18:35:00,86.3,52.1,29.97,NNW,333,8.0,17.0,31,0.00,,,0.00,Wunderground v.1.15,2013-08-24 01:35:00,
2013-08-23 18:45:00,86.1,51.9,29.97,NNW,329,8.0,15.0,31,0.00,,,0.00,Wunderground v.1.15,2013-08-24 01:45:00,
2013-08-23 18:50:00,85.6,52.4,29.97,NNW,333,9.0,9.0,32,0.00,,,0.00,Wunderground v.1.15,2013-08-24 01:50:00,
2013-08-23 19:00:00,85.4,53.0,29.97,NW,323,7.0,15.0,33,0.00,,,0.00,Wunderground v.1.15,2013-08-24 02:00:00,
2013-08-23 19:05:00,85.0,52.7,29.97,WNW,296,9.0,17.0,33,0.00,,,0.00,Wunderground v.1.15,2013-08-24 02:05:00,
2013-08-23 19:15:00,84.3,52.9,29.97,NNW,341,8.0,17.0,34,0.00,,,0.00,Wunderground v.1.15,2013-08-24 02:15:00,
2013-08-23 19:20:00,84.0,54.2,29.97,NW,304,7.0,7.0,36,0.00,,,0.00,Wunderground v.1.15,2013-08-24 02:20:00,
2013-08-23 19:25:00,83.6,53.8,29.97,NW,322,7.0,8.0,36,0.00,,,0.00,Wunderground v.1.15,2013-08-24 02:25:00,
2013-08-23 19:30:00,83.5,54.5,29.98,WNW,303,7.0,7.0,37,0.00,,,0.00,Wunderground v.1.15,2013-08-24 02:30:00,
2013-08-23 19:35:00,83.4,54.4,29.98,NNW,330,6.0,16.0,37,0.00,,,0.00,Wunderground v.1.15,2013-08-24 02:35:00,
2013-08-23 19:45:00,82.8,54.6,29.98,NW,326,6.0,11.0,38,0.00,,,0.00,Wunderground v.1.15,2013-08-24 02:45:00,
2013-08-23 19:50:00,82.7,54.5,29.98,NW,309,7.0,16.0,38,0.00,,,0.00,Wunderground v.1.15,2013-08-24 02:50:00,
2013-08-23 19:55:00,82.5,54.3,29.98,NW,304,8.0,16.0,38,0.00,,,0.00,Wunderground v.1.15,2013-08-24 02:55:00,
2013-08-23 20:00:00,82.3,55.6,29.98,NW,315,7.0,16.0,40,0.00,,,0.00,Wunderground v.1.15,2013-08-24 03:00:00,
2013-08-23 20:05:00,82.1,55.4,29.99,NW,305,7.0,16.0,40,0.00,,,0.00,Wunderground v.1.15,2013-08-24 03:05:00,
2013-08-23 20:15:00,81.8,55.8,29.99,NNW,333,6.0,14.0,41,0.00,,,0.00,Wunderground v.1.15,2013-08-24 03:15:00,
2013-08-23 20:20:00,81.5,56.2,29.99,NW,308,5.0,14.0,42,0.00,,,0.00,Wunderground v.1.15,2013-08-24 03:20:00,
2013-08-23 20:30:00,81.2,56.6,29.99,NW,318,5.0,14.0,43,0.00,,,0.00,Wunderground v.1.15,2013-08-24 03:30:00,
2013-08-23 20:35:00,81.0,57.0,29.99,NNW,329,5.0,14.0,44,0.00,,,0.00,Wunderground v.1.15,2013-08-24 03:35:00,
2013-08-23 20:40:00,80.7,56.8,29.99,NW,312,5.0,5.0,44,0.00,,,0.00,Wunderground v.1.15,2013-08-24 03:40:00,
2013-08-23 20:50:00,80.5,56.6,30.00,NW,311,4.0,4.0,44,0.00,,,0.00,Wunderground v.1.15,2013-08-24 03:50:00,
2013-08-23 21:00:00,80.3,55.8,30.00,WNW,296,4.0,12.0,43,0.00,,,0.00,Wunderground v.1.15,2013-08-24 04:00:00,
2013-08-23 21:05:00,80.3,56.4,30.00,West,281,5.0,12.0,44,0.00,,,0.00,Wunderground v.1.15,2013-08-24 04:05:00,
2013-08-23 21:10:00,80.2,56.9,30.00,WNW,300,4.0,4.0,45,0.00,,,0.00,Wunderground v.1.15,2013-08-24 04:10:00,
2013-08-23 21:15:00,80.2,56.9,30.00,NW,308,2.0,12.0,45,0.00,,,0.00,Wunderground v.1.15,2013-08-24 04:15:00,
2013-08-23 21:20:00,80.0,56.1,30.00,NW,326,2.0,2.0,44,0.00,,,0.00,Wunderground v.1.15,2013-08-24 04:20:00,
2013-08-23 21:30:00,79.6,53.1,30.01,NW,321,1.0,1.0,40,0.00,,,0.00,Wunderground v.1.15,2013-08-24 04:30:00,
2013-08-23 21:35:00,79.7,52.5,30.01,NW,325,1.0,8.0,39,0.00,,,0.00,Wunderground v.1.15,2013-08-24 04:35:00,
2013-08-23 21:40:00,79.7,52.5,30.01,NW,325,0.0,8.0,39,0.00,,,0.00,Wunderground v.1.15,2013-08-24 04:40:00,
2013-08-23 21:45:00,79.5,52.4,30.01,NW,322,1.0,8.0,39,0.00,,,0.00,Wunderground v.1.15,2013-08-24 04:45:00,
2013-08-23 21:50:00,79.5,52.4,30.01,NNW,329,1.0,1.0,39,0.00,,,0.00,Wunderground v.1.15,2013-08-24 04:50:00,
2013-08-23 22:00:00,79.2,52.1,30.01,NW,310,1.0,1.0,39,0.00,,,0.00,Wunderground v.1.15,2013-08-24 05:00:00,
2013-08-23 22:10:00,79.1,50.6,30.01,NNW,335,1.0,1.0,37,0.00,,,0.00,Wunderground v.1.15,2013-08-24 05:10:00,
2013-08-23 22:20:00,78.8,48.8,30.01,NNW,329,1.0,1.0,35,0.00,,,0.00,Wunderground v.1.15,2013-08-24 05:20:00,
2013-08-23 22:25:00,78.5,47.8,30.01,NNW,330,1.0,7.0,34,0.00,,,0.00,Wunderground v.1.15,2013-08-24 05:25:00,
2013-08-23 22:30:00,78.5,46.2,30.01,NNW,337,0.0,7.0,32,0.00,,,0.00,Wunderground v.1.15,2013-08-24 05:30:00,
2013-08-23 22:35:00,78.5,46.2,30.01,North,349,1.0,7.0,32,0.00,,,0.00,Wunderground v.1.15,2013-08-24 05:35:00,
2013-08-23 22:45:00,78.7,43.8,30.01,NNW,338,2.0,5.0,29,0.00,,,0.00,Wunderground v.1.15,2013-08-24 05:45:00,
2013-08-23 22:50:00,79.1,43.2,30.01,NNW,331,4.0,6.0,28,0.00,,,0.00,Wunderground v.1.15,2013-08-24 05:50:00,
2013-08-23 23:00:00,80.0,42.0,30.01,NNW,332,8.0,10.0,26,0.00,,,0.00,Wunderground v.1.15,2013-08-24 06:00:00,
2013-08-23 23:10:00,80.2,41.2,30.01,NW,323,8.0,8.0,25,0.00,,,0.00,Wunderground v.1.15,2013-08-24 06:10:00,
2013-08-23 23:15:00,80.2,41.2,30.01,NW,307,9.0,9.0,25,0.00,,,0.00,Wunderground v.1.15,2013-08-24 06:15:00,
2013-08-23 23:20:00,80.4,40.3,30.01,NW,311,10.0,15.0,24,0.00,,,0.00,Wunderground v.1.15,2013-08-24 06:20:00,
2013-08-23 23:30:00,80.3,40.2,30.01,NNW,336,10.0,16.0,24,0.00,,,0.00,Wunderground v.1.15,2013-08-24 06:30:00,
2013-08-23 23:35:00,80.4,40.3,30.01,NW,314,10.0,17.0,24,0.00,,,0.00,Wunderground v.1.15,2013-08-24 06:35:00,
2013-08-23 23:45:00,80.2,40.1,30.01,NNW,337,10.0,17.0,24,0.00,,,0.00,Wunderground v.1.15,2013-08-24 06:45:00,
2013-08-23 23:50:00,79.9,39.9,30.01,WNW,295,9.0,9.0,24,0.00,,,0.00,Wunderground v.1.15,2013-08-24 06:50:00,